sensor_id;sensor_type;location;lat;lon;timestamp;pressure;altitude;pressure_sealevel;temperature;humidity
55466;BME280;41329;41.594;23.810;2023-04-10T00:00:23;95206.06;;;8.29;63.29
55466;BME280;41329;41.594;23.810;2023-04-10T00:02:49;95231.56;;;8.42;63.40
55466;BME280;41329;41.594;23.810;2023-04-10T00:05:14;95227.63;;;8.43;63.70
55466;BME280;41329;41.594;23.810;2023-04-10T00:07:41;95225.88;;;8.35;63.50
55466;BME280;41329;41.594;23.810;2023-04-10T00:10:09;95220.38;;;8.35;63.60
55466;BME280;41329;41.594;23.810;2023-04-10T00:12:35;95219.66;;;8.38;63.71
55466;BME280;41329;41.594;23.810;2023-04-10T00:15:02;95197.09;;;8.17;63.62
55466;BME280;41329;41.594;23.810;2023-04-10T00:17:28;95153.19;;;7.89;63.21
55466;BME280;41329;41.594;23.810;2023-04-10T00:19:54;95213.47;;;8.25;63.31
55466;BME280;41329;41.594;23.810;2023-04-10T00:22:19;95218.25;;;8.28;63.60
55466;BME280;41329;41.594;23.810;2023-04-10T00:24:44;95216.22;;;8.25;63.58
55466;BME280;41329;41.594;23.810;2023-04-10T00:27:10;95185.06;;;7.90;63.09
55466;BME280;41329;41.594;23.810;2023-04-10T00:29:35;95205.41;;;8.01;62.92
55466;BME280;41329;41.594;23.810;2023-04-10T00:32:01;95157.09;;;7.73;63.54
55466;BME280;41329;41.594;23.810;2023-04-10T00:34:26;95201.06;;;8.00;63.81
55466;BME280;41329;41.594;23.810;2023-04-10T00:36:52;95197.16;;;8.01;63.96
55466;BME280;41329;41.594;23.810;2023-04-10T00:39:18;95188.78;;;7.98;63.91
55466;BME280;41329;41.594;23.810;2023-04-10T00:41:43;95194.94;;;7.76;63.86
55466;BME280;41329;41.594;23.810;2023-04-10T00:44:08;95176.66;;;7.68;63.52
55466;BME280;41329;41.594;23.810;2023-04-10T00:46:36;95188.81;;;7.82;63.76
55466;BME280;41329;41.594;23.810;2023-04-10T00:49:02;95189.97;;;7.81;63.47
55466;BME280;41329;41.594;23.810;2023-04-10T00:51:28;95190.78;;;7.82;63.41
55466;BME280;41329;41.594;23.810;2023-04-10T00:53:53;95185.97;;;7.79;63.58
55466;BME280;41329;41.594;23.810;2023-04-10T00:56:20;95188.56;;;7.72;63.47
55466;BME280;41329;41.594;23.810;2023-04-10T00:58:46;95196.94;;;7.75;63.51
55466;BME280;41329;41.594;23.810;2023-04-10T01:01:12;95186.00;;;7.63;63.48
55466;BME280;41329;41.594;23.810;2023-04-10T01:03:38;95186.00;;;7.63;63.67
55466;BME280;41329;41.594;23.810;2023-04-10T01:08:46;95166.81;;;7.51;63.53
55466;BME280;41329;41.594;23.810;2023-04-10T01:16:45;95178.63;;;7.52;63.41
55466;BME280;41329;41.594;23.810;2023-04-10T01:22:09;95168.84;;;7.39;63.49
55466;BME280;41329;41.594;23.810;2023-04-10T01:24:56;95172.78;;;7.38;63.33
55466;BME280;41329;41.594;23.810;2023-04-10T01:30:01;95172.22;;;7.32;63.41
55466;BME280;41329;41.594;23.810;2023-04-10T01:32:28;95166.72;;;7.32;63.60
55466;BME280;41329;41.594;23.810;2023-04-10T01:34:56;95175.59;;;7.41;63.49
55466;BME280;41329;41.594;23.810;2023-04-10T01:37:33;95172.59;;;7.46;63.74
55466;BME280;41329;41.594;23.810;2023-04-10T01:40:03;95174.97;;;7.48;63.33
55466;BME280;41329;41.594;23.810;2023-04-10T01:42:34;95165.13;;;7.47;63.04
55466;BME280;41329;41.594;23.810;2023-04-10T01:45:05;95147.03;;;7.30;62.77
55466;BME280;41329;41.594;23.810;2023-04-10T01:47:33;95161.13;;;7.44;62.92
55466;BME280;41329;41.594;23.810;2023-04-10T01:49:59;95152.09;;;7.44;62.93
55466;BME280;41329;41.594;23.810;2023-04-10T01:52:26;95160.16;;;7.52;62.80
55466;BME280;41329;41.594;23.810;2023-04-10T01:54:52;95154.84;;;7.44;62.48
55466;BME280;41329;41.594;23.810;2023-04-10T01:57:19;95163.38;;;7.54;62.11
55466;BME280;41329;41.594;23.810;2023-04-10T01:59:45;95124.28;;;7.18;61.93
55466;BME280;41329;41.594;23.810;2023-04-10T02:02:10;95165.38;;;7.57;61.78
55466;BME280;41329;41.594;23.810;2023-04-10T02:04:36;95159.91;;;7.42;61.61
55466;BME280;41329;41.594;23.810;2023-04-10T02:07:03;95117.13;;;7.13;61.08
55466;BME280;41329;41.594;23.810;2023-04-10T02:12:28;95163.97;;;7.48;61.44
55466;BME280;41329;41.594;23.810;2023-04-10T02:14:55;95156.16;;;7.50;60.85
55466;BME280;41329;41.594;23.810;2023-04-10T02:17:26;95153.69;;;7.45;60.73
55466;BME280;41329;41.594;23.810;2023-04-10T02:19:54;95153.06;;;7.51;60.74
55466;BME280;41329;41.594;23.810;2023-04-10T02:22:20;95158.66;;;7.39;60.91
55466;BME280;41329;41.594;23.810;2023-04-10T02:24:48;95148.19;;;7.29;60.78
55466;BME280;41329;41.594;23.810;2023-04-10T02:27:14;95156.06;;;7.31;61.05
55466;BME280;41329;41.594;23.810;2023-04-10T02:29:40;95146.69;;;7.32;61.27
55466;BME280;41329;41.594;23.810;2023-04-10T02:32:05;95096.72;;;6.99;61.30
55466;BME280;41329;41.594;23.810;2023-04-10T02:34:31;95130.53;;;7.15;61.21
55466;BME280;41329;41.594;23.810;2023-04-10T02:36:56;95153.66;;;7.14;61.67
55466;BME280;41329;41.594;23.810;2023-04-10T02:39:22;95152.06;;;7.13;61.65
55466;BME280;41329;41.594;23.810;2023-04-10T02:41:47;95149.34;;;7.13;61.66
55466;BME280;41329;41.594;23.810;2023-04-10T02:44:13;95131.31;;;7.00;61.89
55466;BME280;41329;41.594;23.810;2023-04-10T02:46:38;95135.56;;;6.82;62.48
55466;BME280;41329;41.594;23.810;2023-04-10T02:49:04;95109.59;;;6.52;62.86
55466;BME280;41329;41.594;23.810;2023-04-10T02:51:33;95156.41;;;6.83;62.89
55466;BME280;41329;41.594;23.810;2023-04-10T02:54:00;95157.00;;;6.76;63.12
55466;BME280;41329;41.594;23.810;2023-04-10T02:56:25;95150.06;;;6.67;63.03
55466;BME280;41329;41.594;23.810;2023-04-10T02:58:51;95141.25;;;6.61;63.42
55466;BME280;41329;41.594;23.810;2023-04-10T03:01:17;95151.31;;;6.69;63.67
55466;BME280;41329;41.594;23.810;2023-04-10T03:03:43;95142.00;;;6.74;63.96
55466;BME280;41329;41.594;23.810;2023-04-10T03:06:08;95128.53;;;6.69;64.02
55466;BME280;41329;41.594;23.810;2023-04-10T03:08:34;95140.31;;;6.85;63.86
55466;BME280;41329;41.594;23.810;2023-04-10T03:11:00;95128.25;;;6.58;64.01
55466;BME280;41329;41.594;23.810;2023-04-10T03:13:26;95143.19;;;6.73;63.92
55466;BME280;41329;41.594;23.810;2023-04-10T03:15:51;95148.28;;;6.74;64.11
55466;BME280;41329;41.594;23.810;2023-04-10T03:18:17;95154.81;;;6.82;63.97
55466;BME280;41329;41.594;23.810;2023-04-10T03:20:42;95149.13;;;6.90;64.17
55466;BME280;41329;41.594;23.810;2023-04-10T03:23:07;95145.34;;;6.95;63.96
55466;BME280;41329;41.594;23.810;2023-04-10T03:25:33;95154.91;;;7.01;63.77
55466;BME280;41329;41.594;23.810;2023-04-10T03:27:59;95132.00;;;6.97;63.93
55466;BME280;41329;41.594;23.810;2023-04-10T03:30:25;95146.16;;;7.11;63.59
55466;BME280;41329;41.594;23.810;2023-04-10T03:32:51;95152.28;;;7.20;63.12
55466;BME280;41329;41.594;23.810;2023-04-10T03:35:16;95147.81;;;7.15;62.52
55466;BME280;41329;41.594;23.810;2023-04-10T03:37:42;95135.16;;;7.11;62.52
55466;BME280;41329;41.594;23.810;2023-04-10T03:40:08;95148.09;;;7.26;62.25
55466;BME280;41329;41.594;23.810;2023-04-10T03:42:34;95131.31;;;7.15;62.16
55466;BME280;41329;41.594;23.810;2023-04-10T03:45:00;95157.22;;;7.30;61.85
55466;BME280;41329;41.594;23.810;2023-04-10T03:47:32;95146.78;;;7.20;61.80
55466;BME280;41329;41.594;23.810;2023-04-10T03:49:57;95154.06;;;7.12;62.05
55466;BME280;41329;41.594;23.810;2023-04-10T03:52:24;95154.84;;;7.13;62.21
55466;BME280;41329;41.594;23.810;2023-04-10T03:54:49;95153.25;;;7.12;62.26
55466;BME280;41329;41.594;23.810;2023-04-10T03:57:16;95154.75;;;7.09;62.22
55466;BME280;41329;41.594;23.810;2023-04-10T03:59:42;95159.44;;;7.09;62.61
55466;BME280;41329;41.594;23.810;2023-04-10T04:02:08;95139.81;;;6.95;62.63
55466;BME280;41329;41.594;23.810;2023-04-10T04:04:33;95148.72;;;7.04;62.49
55466;BME280;41329;41.594;23.810;2023-04-10T04:06:59;95151.81;;;7.02;62.60
55466;BME280;41329;41.594;23.810;2023-04-10T04:09:24;95166.81;;;7.05;63.03
55466;BME280;41329;41.594;23.810;2023-04-10T04:11:50;95164.50;;;7.07;63.07
55466;BME280;41329;41.594;23.810;2023-04-10T04:14:15;95165.56;;;7.02;63.10
55466;BME280;41329;41.594;23.810;2023-04-10T04:16:41;95148.84;;;6.95;62.83
55466;BME280;41329;41.594;23.810;2023-04-10T04:19:06;95163.34;;;7.08;63.24
55466;BME280;41329;41.594;23.810;2023-04-10T04:21:32;95169.81;;;7.00;63.66
55466;BME280;41329;41.594;23.810;2023-04-10T04:23:57;95168.78;;;7.04;63.52
55466;BME280;41329;41.594;23.810;2023-04-10T04:26:23;95142.56;;;6.95;63.41
55466;BME280;41329;41.594;23.810;2023-04-10T04:28:49;95151.31;;;7.12;63.50
55466;BME280;41329;41.594;23.810;2023-04-10T04:31:15;95155.78;;;7.05;63.69
55466;BME280;41329;41.594;23.810;2023-04-10T04:33:41;95149.25;;;7.09;63.71
55466;BME280;41329;41.594;23.810;2023-04-10T04:36:06;95147.19;;;7.06;63.67
55466;BME280;41329;41.594;23.810;2023-04-10T04:38:32;95160.25;;;6.94;64.05
55466;BME280;41329;41.594;23.810;2023-04-10T04:40:57;95162.47;;;7.04;64.18
55466;BME280;41329;41.594;23.810;2023-04-10T04:43:23;95150.84;;;6.95;64.26
55466;BME280;41329;41.594;23.810;2023-04-10T04:45:48;95161.66;;;7.03;64.41
55466;BME280;41329;41.594;23.810;2023-04-10T04:48:14;95145.06;;;7.00;64.54
55466;BME280;41329;41.594;23.810;2023-04-10T04:50:39;95153.66;;;7.14;64.61
55466;BME280;41329;41.594;23.810;2023-04-10T04:53:06;95166.31;;;7.30;64.78
55466;BME280;41329;41.594;23.810;2023-04-10T04:55:32;95138.78;;;7.15;64.55
55466;BME280;41329;41.594;23.810;2023-04-10T04:57:57;95168.44;;;7.21;64.40
55466;BME280;41329;41.594;23.810;2023-04-10T05:00:22;95160.78;;;7.15;64.63
55466;BME280;41329;41.594;23.810;2023-04-10T05:02:48;95169.47;;;7.17;65.06
55466;BME280;41329;41.594;23.810;2023-04-10T05:05:13;95168.84;;;7.23;64.56
55466;BME280;41329;41.594;23.810;2023-04-10T05:07:40;95160.38;;;6.85;64.82
55466;BME280;41329;41.594;23.810;2023-04-10T05:10:06;95156.75;;;6.81;65.35
55466;BME280;41329;41.594;23.810;2023-04-10T05:12:32;95168.84;;;6.92;65.57
55466;BME280;41329;41.594;23.810;2023-04-10T05:14:58;95160.13;;;7.06;66.12
55466;BME280;41329;41.594;23.810;2023-04-10T05:17:23;95163.22;;;6.89;66.26
55466;BME280;41329;41.594;23.810;2023-04-10T05:19:49;95170.78;;;7.07;66.60
55466;BME280;41329;41.594;23.810;2023-04-10T05:22:14;95136.38;;;6.98;66.45
55466;BME280;41329;41.594;23.810;2023-04-10T05:24:40;95159.91;;;7.26;66.72
55466;BME280;41329;41.594;23.810;2023-04-10T05:27:05;95167.88;;;7.31;66.45
55466;BME280;41329;41.594;23.810;2023-04-10T05:29:31;95167.53;;;7.48;66.26
55466;BME280;41329;41.594;23.810;2023-04-10T05:31:56;95172.06;;;7.56;66.44
55466;BME280;41329;41.594;23.810;2023-04-10T05:34:22;95165.94;;;7.47;66.21
55466;BME280;41329;41.594;23.810;2023-04-10T05:36:47;95169.50;;;7.63;66.33
55466;BME280;41329;41.594;23.810;2023-04-10T05:39:13;95163.78;;;7.72;66.63
55466;BME280;41329;41.594;23.810;2023-04-10T05:41:39;95171.13;;;7.83;66.58
55466;BME280;41329;41.594;23.810;2023-04-10T05:44:05;95172.09;;;7.91;66.75
55466;BME280;41329;41.594;23.810;2023-04-10T05:46:30;95169.25;;;8.03;66.55
55466;BME280;41329;41.594;23.810;2023-04-10T05:48:56;95173.00;;;8.14;66.20
55466;BME280;41329;41.594;23.810;2023-04-10T05:51:22;95137.59;;;7.97;64.57
55466;BME280;41329;41.594;23.810;2023-04-10T05:53:47;95176.03;;;8.24;64.53
55466;BME280;41329;41.594;23.810;2023-04-10T05:56:13;95160.69;;;8.42;63.68
55466;BME280;41329;41.594;23.810;2023-04-10T05:58:38;95172.00;;;8.56;62.63
55466;BME280;41329;41.594;23.810;2023-04-10T06:01:04;95145.72;;;8.62;60.51
55466;BME280;41329;41.594;23.810;2023-04-10T06:03:29;95150.38;;;8.77;60.94
55466;BME280;41329;41.594;23.810;2023-04-10T06:05:55;95178.44;;;9.02;60.98
55466;BME280;41329;41.594;23.810;2023-04-10T06:08:21;95169.19;;;9.13;59.58
55466;BME280;41329;41.594;23.810;2023-04-10T06:10:47;95161.41;;;9.19;58.62
55466;BME280;41329;41.594;23.810;2023-04-10T06:13:12;95160.00;;;9.28;58.40
55466;BME280;41329;41.594;23.810;2023-04-10T06:15:39;95160.19;;;9.39;57.79
55466;BME280;41329;41.594;23.810;2023-04-10T06:18:05;95153.63;;;9.47;57.43
55466;BME280;41329;41.594;23.810;2023-04-10T06:20:30;95149.75;;;9.51;57.00
55466;BME280;41329;41.594;23.810;2023-04-10T06:22:57;95147.06;;;9.55;55.25
55466;BME280;41329;41.594;23.810;2023-04-10T06:25:23;95150.72;;;9.62;56.07
55466;BME280;41329;41.594;23.810;2023-04-10T06:27:48;95147.72;;;9.71;56.05
55466;BME280;41329;41.594;23.810;2023-04-10T06:30:13;95135.19;;;9.77;55.41
55466;BME280;41329;41.594;23.810;2023-04-10T06:32:39;95142.94;;;9.94;53.88
55466;BME280;41329;41.594;23.810;2023-04-10T06:35:05;95133.53;;;9.98;53.32
55466;BME280;41329;41.594;23.810;2023-04-10T06:37:30;95135.69;;;10.08;53.75
55466;BME280;41329;41.594;23.810;2023-04-10T06:40:05;95141.00;;;10.20;53.61
55466;BME280;41329;41.594;23.810;2023-04-10T06:42:31;95115.97;;;10.10;51.82
55466;BME280;41329;41.594;23.810;2023-04-10T06:44:56;95119.72;;;10.24;52.20
55466;BME280;41329;41.594;23.810;2023-04-10T06:47:21;95118.28;;;10.34;52.50
55466;BME280;41329;41.594;23.810;2023-04-10T06:49:47;95126.41;;;10.53;51.56
55466;BME280;41329;41.594;23.810;2023-04-10T06:52:12;95120.72;;;10.72;50.60
55466;BME280;41329;41.594;23.810;2023-04-10T06:54:38;95132.41;;;10.91;50.43
55466;BME280;41329;41.594;23.810;2023-04-10T06:57:03;95122.66;;;11.01;49.45
55466;BME280;41329;41.594;23.810;2023-04-10T06:59:29;95133.03;;;11.11;47.68
55466;BME280;41329;41.594;23.810;2023-04-10T07:01:55;95122.41;;;11.16;50.07
55466;BME280;41329;41.594;23.810;2023-04-10T07:04:21;95120.63;;;11.38;50.07
55466;BME280;41329;41.594;23.810;2023-04-10T07:06:46;95130.06;;;11.70;47.75
55466;BME280;41329;41.594;23.810;2023-04-10T07:09:12;95110.72;;;11.77;46.69
55466;BME280;41329;41.594;23.810;2023-04-10T07:11:38;95110.81;;;11.94;45.22
55466;BME280;41329;41.594;23.810;2023-04-10T07:14:04;95109.31;;;12.04;44.50
55466;BME280;41329;41.594;23.810;2023-04-10T07:16:29;95119.72;;;12.21;44.66
55466;BME280;41329;41.594;23.810;2023-04-10T07:18:55;95121.38;;;12.32;43.06
55466;BME280;41329;41.594;23.810;2023-04-10T07:21:20;95120.66;;;12.46;41.00
55466;BME280;41329;41.594;23.810;2023-04-10T07:23:45;95133.00;;;12.59;42.28
55466;BME280;41329;41.594;23.810;2023-04-10T07:26:11;95127.88;;;12.65;39.91
55466;BME280;41329;41.594;23.810;2023-04-10T07:28:37;95131.03;;;12.60;40.24
55466;BME280;41329;41.594;23.810;2023-04-10T07:31:02;95114.81;;;12.69;40.16
55466;BME280;41329;41.594;23.810;2023-04-10T07:33:28;95129.91;;;12.75;37.82
55466;BME280;41329;41.594;23.810;2023-04-10T07:35:55;95129.09;;;12.71;39.70
55466;BME280;41329;41.594;23.810;2023-04-10T07:38:20;95124.69;;;12.56;38.80
55466;BME280;41329;41.594;23.810;2023-04-10T07:40:45;95115.97;;;12.64;38.26
55466;BME280;41329;41.594;23.810;2023-04-10T07:43:15;95118.38;;;12.66;38.48
55466;BME280;41329;41.594;23.810;2023-04-10T07:45:40;95128.31;;;12.67;39.47
55466;BME280;41329;41.594;23.810;2023-04-10T07:48:06;95129.13;;;12.78;39.55
55466;BME280;41329;41.594;23.810;2023-04-10T07:50:31;95116.03;;;12.71;39.89
55466;BME280;41329;41.594;23.810;2023-04-10T07:52:57;95129.53;;;12.76;40.03
55466;BME280;41329;41.594;23.810;2023-04-10T07:55:23;95135.50;;;12.85;39.35
55466;BME280;41329;41.594;23.810;2023-04-10T07:57:48;95132.34;;;12.87;38.04
55466;BME280;41329;41.594;23.810;2023-04-10T08:00:16;95124.38;;;12.82;38.15
55466;BME280;41329;41.594;23.810;2023-04-10T08:02:41;95126.00;;;12.90;37.45
55466;BME280;41329;41.594;23.810;2023-04-10T08:05:07;95133.22;;;13.01;38.49
55466;BME280;41329;41.594;23.810;2023-04-10T08:07:33;95130.00;;;12.96;37.79
55466;BME280;41329;41.594;23.810;2023-04-10T08:10:00;95128.41;;;12.91;37.20
55466;BME280;41329;41.594;23.810;2023-04-10T08:12:26;95124.50;;;12.99;37.42
55466;BME280;41329;41.594;23.810;2023-04-10T08:14:51;95116.09;;;12.96;37.62
55466;BME280;41329;41.594;23.810;2023-04-10T08:17:17;95112.13;;;12.90;37.72
55466;BME280;41329;41.594;23.810;2023-04-10T08:19:42;95126.81;;;12.90;35.99
55466;BME280;41329;41.594;23.810;2023-04-10T08:22:08;95129.28;;;13.02;36.65
55466;BME280;41329;41.594;23.810;2023-04-10T08:24:33;95079.22;;;12.95;38.18
55466;BME280;41329;41.594;23.810;2023-04-10T08:26:59;95119.03;;;13.45;37.51
55466;BME280;41329;41.594;23.810;2023-04-10T08:29:25;95121.41;;;13.39;36.31
55466;BME280;41329;41.594;23.810;2023-04-10T08:31:50;95090.44;;;13.30;36.88
55466;BME280;41329;41.594;23.810;2023-04-10T08:34:16;95105.97;;;13.56;37.15
55466;BME280;41329;41.594;23.810;2023-04-10T08:36:41;95115.88;;;13.60;36.57
55466;BME280;41329;41.594;23.810;2023-04-10T08:39:07;95109.13;;;13.65;35.77
55466;BME280;41329;41.594;23.810;2023-04-10T08:41:32;95098.03;;;13.61;35.62
55466;BME280;41329;41.594;23.810;2023-04-10T08:43:57;95114.28;;;13.35;35.89
55466;BME280;41329;41.594;23.810;2023-04-10T08:46:23;95121.44;;;13.43;35.86
55466;BME280;41329;41.594;23.810;2023-04-10T08:49:00;95111.50;;;13.45;35.27
55466;BME280;41329;41.594;23.810;2023-04-10T08:52:03;95104.72;;;13.39;35.56
55466;BME280;41329;41.594;23.810;2023-04-10T08:54:29;95098.78;;;13.41;35.35
55466;BME280;41329;41.594;23.810;2023-04-10T08:56:57;95105.94;;;13.52;36.96
55466;BME280;41329;41.594;23.810;2023-04-10T08:59:22;95098.41;;;13.60;35.69
55466;BME280;41329;41.594;23.810;2023-04-10T09:01:48;95098.41;;;13.63;36.75
55466;BME280;41329;41.594;23.810;2023-04-10T09:04:14;95075.78;;;13.44;35.47
55466;BME280;41329;41.594;23.810;2023-04-10T09:06:41;95072.97;;;13.37;36.04
55466;BME280;41329;41.594;23.810;2023-04-10T09:09:06;95088.88;;;13.50;36.22
55466;BME280;41329;41.594;23.810;2023-04-10T09:14:24;95092.44;;;13.44;36.56
55466;BME280;41329;41.594;23.810;2023-04-10T09:16:51;95067.84;;;13.49;36.06
55466;BME280;41329;41.594;23.810;2023-04-10T09:19:30;95073.38;;;13.74;36.39
55466;BME280;41329;41.594;23.810;2023-04-10T09:21:55;95077.34;;;13.76;36.31
55466;BME280;41329;41.594;23.810;2023-04-10T09:24:25;95061.88;;;13.82;36.00
55466;BME280;41329;41.594;23.810;2023-04-10T09:26:50;95061.88;;;13.86;35.80
55466;BME280;41329;41.594;23.810;2023-04-10T09:29:16;95057.88;;;13.59;36.01
55466;BME280;41329;41.594;23.810;2023-04-10T09:31:41;95062.25;;;13.74;36.12
55466;BME280;41329;41.594;23.810;2023-04-10T09:34:18;95057.09;;;13.86;35.58
55466;BME280;41329;41.594;23.810;2023-04-10T09:36:55;95049.94;;;13.82;35.10
55466;BME280;41329;41.594;23.810;2023-04-10T09:39:25;95037.22;;;13.77;35.59
55466;BME280;41329;41.594;23.810;2023-04-10T09:41:57;95045.56;;;13.91;35.25
55466;BME280;41329;41.594;23.810;2023-04-10T09:44:31;95040.81;;;13.88;34.79
55466;BME280;41329;41.594;23.810;2023-04-10T09:47:17;95026.09;;;13.77;34.21
55466;BME280;41329;41.594;23.810;2023-04-10T09:49:50;95024.50;;;13.80;34.72
55466;BME280;41329;41.594;23.810;2023-04-10T09:52:36;95022.53;;;13.73;34.17
55466;BME280;41329;41.594;23.810;2023-04-10T09:55:05;95026.09;;;13.88;34.67
55466;BME280;41329;41.594;23.810;2023-04-10T09:57:34;95034.41;;;14.05;34.86
55466;BME280;41329;41.594;23.810;2023-04-10T10:00:04;95032.41;;;14.23;35.18
55466;BME280;41329;41.594;23.810;2023-04-10T10:02:35;95028.41;;;14.31;34.03
55466;BME280;41329;41.594;23.810;2023-04-10T10:05:03;95014.47;;;14.31;33.22
55466;BME280;41329;41.594;23.810;2023-04-10T10:07:30;94975.25;;;13.84;32.01
55466;BME280;41329;41.594;23.810;2023-04-10T10:09:57;95024.84;;;14.17;32.16
55466;BME280;41329;41.594;23.810;2023-04-10T10:12:29;95026.06;;;14.12;33.71
55466;BME280;41329;41.594;23.810;2023-04-10T10:17:52;95026.06;;;14.12;34.81
55466;BME280;41329;41.594;23.810;2023-04-10T10:20:21;95017.28;;;14.17;35.31
55466;BME280;41329;41.594;23.810;2023-04-10T10:22:49;95021.66;;;14.18;35.00
55466;BME280;41329;41.594;23.810;2023-04-10T10:25:15;95022.84;;;14.17;34.57
55466;BME280;41329;41.594;23.810;2023-04-10T10:27:40;95028.84;;;14.12;35.23
55466;BME280;41329;41.594;23.810;2023-04-10T10:30:06;95025.69;;;14.03;35.34
55466;BME280;41329;41.594;23.810;2023-04-10T10:32:34;95011.38;;;13.91;34.99
55466;BME280;41329;41.594;23.810;2023-04-10T10:35:01;95026.88;;;14.06;34.55
55466;BME280;41329;41.594;23.810;2023-04-10T10:37:32;95020.09;;;14.07;34.72
55466;BME280;41329;41.594;23.810;2023-04-10T10:47:31;95004.97;;;14.15;35.17
55466;BME280;41329;41.594;23.810;2023-04-10T10:49:59;95014.13;;;14.12;34.91
55466;BME280;41329;41.594;23.810;2023-04-10T10:52:49;95009.41;;;13.88;35.05
55466;BME280;41329;41.594;23.810;2023-04-10T10:58:07;95004.22;;;14.07;36.55
55466;BME280;41329;41.594;23.810;2023-04-10T11:01:03;95007.75;;;14.25;36.33
55466;BME280;41329;41.594;23.810;2023-04-10T11:03:29;95001.34;;;14.42;34.59
55466;BME280;41329;41.594;23.810;2023-04-10T11:06:17;95001.63;;;14.69;36.32
55466;BME280;41329;41.594;23.810;2023-04-10T11:08:45;94983.16;;;14.92;34.41
55466;BME280;41329;41.594;23.810;2023-04-10T11:11:14;95000.03;;;15.29;36.27
55466;BME280;41329;41.594;23.810;2023-04-10T11:16:15;94994.66;;;16.00;37.00
55466;BME280;41329;41.594;23.810;2023-04-10T11:21:18;94992.09;;;16.16;33.63
55466;BME280;41329;41.594;23.810;2023-04-10T11:32:03;94967.03;;;15.72;32.84
55466;BME280;41329;41.594;23.810;2023-04-10T11:34:28;94974.91;;;15.80;32.45
55466;BME280;41329;41.594;23.810;2023-04-10T11:37:00;94984.41;;;15.90;32.20
55466;BME280;41329;41.594;23.810;2023-04-10T11:39:29;94992.41;;;15.84;32.92
55466;BME280;41329;41.594;23.810;2023-04-10T11:41:55;94990.81;;;15.83;32.30
55466;BME280;41329;41.594;23.810;2023-04-10T11:46:51;94946.53;;;15.48;33.20
55466;BME280;41329;41.594;23.810;2023-04-10T11:49:18;94967.50;;;15.63;32.81
55466;BME280;41329;41.594;23.810;2023-04-10T11:51:46;94981.06;;;15.65;32.71
55466;BME280;41329;41.594;23.810;2023-04-10T11:54:22;94982.53;;;15.25;31.90
55466;BME280;41329;41.594;23.810;2023-04-10T11:57:03;94991.00;;;15.11;33.28
55466;BME280;41329;41.594;23.810;2023-04-10T11:59:29;94994.66;;;15.01;33.91
55466;BME280;41329;41.594;23.810;2023-04-10T12:02:11;94979.69;;;14.78;34.18
55466;BME280;41329;41.594;23.810;2023-04-10T12:04:39;94992.78;;;14.81;34.79
55466;BME280;41329;41.594;23.810;2023-04-10T12:07:05;94986.44;;;14.80;34.19
55466;BME280;41329;41.594;23.810;2023-04-10T12:09:31;94991.72;;;14.57;34.11
55466;BME280;41329;41.594;23.810;2023-04-10T12:12:02;94984.63;;;14.49;34.37
55466;BME280;41329;41.594;23.810;2023-04-10T12:14:33;95000.50;;;14.49;34.78
55466;BME280;41329;41.594;23.810;2023-04-10T12:17:00;94972.78;;;14.24;34.70
55466;BME280;41329;41.594;23.810;2023-04-10T12:19:26;94978.31;;;14.31;35.38
55466;BME280;41329;41.594;23.810;2023-04-10T12:21:52;94964.06;;;14.08;34.75
55466;BME280;41329;41.594;23.810;2023-04-10T12:27:05;94978.38;;;14.00;35.84
55466;BME280;41329;41.594;23.810;2023-04-10T12:29:30;94986.31;;;14.05;35.58
55466;BME280;41329;41.594;23.810;2023-04-10T12:31:56;94978.75;;;14.09;35.22
55466;BME280;41329;41.594;23.810;2023-04-10T12:34:22;94982.34;;;14.02;35.22
55466;BME280;41329;41.594;23.810;2023-04-10T12:36:53;94984.31;;;14.09;35.69
55466;BME280;41329;41.594;23.810;2023-04-10T12:39:23;94980.38;;;14.10;35.46
55466;BME280;41329;41.594;23.810;2023-04-10T12:41:48;94963.75;;;13.89;35.03
55466;BME280;41329;41.594;23.810;2023-04-10T12:44:15;94964.91;;;13.88;35.18
55466;BME280;41329;41.594;23.810;2023-04-10T12:46:41;94974.00;;;14.06;35.63
55466;BME280;41329;41.594;23.810;2023-04-10T12:49:13;94971.66;;;13.94;35.21
55466;BME280;41329;41.594;23.810;2023-04-10T12:51:50;94920.53;;;13.49;35.80
55466;BME280;41329;41.594;23.810;2023-04-10T12:54:33;94970.53;;;13.70;35.57
55466;BME280;41329;41.594;23.810;2023-04-10T12:56:59;94924.09;;;13.39;35.41
55466;BME280;41329;41.594;23.810;2023-04-10T12:59:26;94957.81;;;13.69;35.25
55466;BME280;41329;41.594;23.810;2023-04-10T13:01:52;94972.47;;;13.87;35.33
55466;BME280;41329;41.594;23.810;2023-04-10T13:04:18;94965.72;;;13.81;35.08
55466;BME280;41329;41.594;23.810;2023-04-10T13:06:45;94960.97;;;13.82;34.79
55466;BME280;41329;41.594;23.810;2023-04-10T13:09:12;94968.13;;;13.86;34.89
55466;BME280;41329;41.594;23.810;2023-04-10T13:11:39;94953.81;;;13.84;34.52
55466;BME280;41329;41.594;23.810;2023-04-10T13:14:04;94949.81;;;13.92;34.77
55466;BME280;41329;41.594;23.810;2023-04-10T13:16:30;94938.75;;;13.78;35.31
55466;BME280;41329;41.594;23.810;2023-04-10T13:18:55;94951.41;;;13.97;35.36
55466;BME280;41329;41.594;23.810;2023-04-10T13:21:21;94956.97;;;13.90;36.92
55466;BME280;41329;41.594;23.810;2023-04-10T13:23:56;94949.47;;;13.69;36.36
55466;BME280;41329;41.594;23.810;2023-04-10T13:26:22;94945.91;;;13.65;37.42
55466;BME280;41329;41.594;23.810;2023-04-10T13:28:48;94938.41;;;13.52;36.86
55466;BME280;41329;41.594;23.810;2023-04-10T13:31:14;94941.16;;;13.52;36.82
55466;BME280;41329;41.594;23.810;2023-04-10T13:33:40;94941.19;;;13.41;37.30
55466;BME280;41329;41.594;23.810;2023-04-10T13:36:07;94938.03;;;13.22;37.76
55466;BME280;41329;41.594;23.810;2023-04-10T13:38:33;94947.13;;;13.33;38.08
55466;BME280;41329;41.594;23.810;2023-04-10T13:40:58;94935.66;;;13.13;38.33
55466;BME280;41329;41.594;23.810;2023-04-10T13:43:24;94953.13;;;13.24;38.68
55466;BME280;41329;41.594;23.810;2023-04-10T13:45:49;94949.94;;;13.29;38.94